Time;durP1;ratioP1;P1;durP2;ratioP2;P2;SDS_P1;SDS_P2;PMS_P1;PMS_P2;Temp;Humidity;BMP_temperature;BMP_pressure;BME280_temperature;BME280_humidity;BME280_pressure;Samples;Min_cycle;Max_cycle;Signal;HPM_P1;HPM_P2
2023/06/15 00:00:54;;;;;;;19.27;7.57;;;;;;;-144.57;100.00;62443.72;4938424;29;20039;-64
2023/06/15 00:03:20;;;;;;;12.60;6.93;;;;;;;-144.57;100.00;62443.72;4955160;29;20098;-64
2023/06/15 00:05:46;;;;;;;14.18;6.53;;;;;;;-144.57;100.00;62443.72;4922492;29;20410;-64
2023/06/15 00:08:12;;;;;;;11.05;6.07;;;;;;;-144.57;100.00;62443.72;4955167;29;20062;-64
2023/06/15 00:10:38;;;;;;;10.40;6.10;;;;;;;-144.57;100.00;62443.72;4955358;29;20505;-64
2023/06/15 00:13:03;;;;;;;9.73;5.18;;;;;;;-144.57;100.00;62443.72;4937776;29;20557;-64
2023/06/15 00:15:30;;;;;;;7.80;5.30;;;;;;;-144.57;100.00;62443.72;4955228;29;20050;-64
2023/06/15 00:17:56;;;;;;;8.07;5.43;;;;;;;-144.57;100.00;62443.72;4954689;29;20043;-64
2023/06/15 00:20:22;;;;;;;19.45;6.60;;;;;;;-144.57;100.00;62443.72;4955172;29;20173;-64
2023/06/15 00:22:49;;;;;;;11.25;5.57;;;;;;;-144.57;100.00;62443.72;4954860;29;20133;-63
2023/06/15 00:25:15;;;;;;;8.70;5.60;;;;;;;-144.57;100.00;62443.72;4955235;29;20089;-65
2023/06/15 00:27:41;;;;;;;10.73;5.85;;;;;;;-144.57;100.00;62443.72;4955111;28;20088;-65
2023/06/15 00:30:10;;;;;;;11.40;6.13;;;;;;;-144.57;100.00;62443.72;4954940;29;20695;-65
2023/06/15 00:32:36;;;;;;;11.93;5.63;;;;;;;-144.57;100.00;62443.72;4937687;29;20050;-65
2023/06/15 00:35:03;;;;;;;10.18;5.55;;;;;;;-144.57;100.00;62443.72;4937667;29;20070;-65
2023/06/15 00:37:30;;;;;;;11.00;5.72;;;;;;;-144.57;100.00;62443.72;4922329;29;20050;-65
2023/06/15 00:39:56;;;;;;;12.25;6.18;;;;;;;-144.57;100.00;62443.72;4954886;29;20047;-64
2023/06/15 00:42:22;;;;;;;10.27;6.10;;;;;;;-144.57;100.00;62443.72;4953343;28;20054;-64
2023/06/15 00:44:47;;;;;;;9.45;6.03;;;;;;;-144.57;100.00;62443.72;4954309;29;20043;-65
2023/06/15 00:47:18;;;;;;;8.02;4.97;;;;;;;-144.57;100.00;62443.72;4954668;29;20045;-66
2023/06/15 00:49:44;;;;;;;9.13;5.55;;;;;;;-144.57;100.00;62443.72;4937433;29;20047;-66
2023/06/15 00:52:11;;;;;;;7.72;4.85;;;;;;;-144.57;100.00;62443.72;4954089;29;20039;-63
2023/06/15 00:54:40;;;;;;;13.20;6.07;;;;;;;-144.57;100.00;62443.72;4936316;29;20131;-65
2023/06/15 00:57:10;;;;;;;9.10;5.53;;;;;;;-144.57;100.00;62443.72;4937105;29;20047;-66
2023/06/15 00:59:37;;;;;;;12.27;5.50;;;;;;;-144.57;100.00;62443.72;4936919;29;20433;-66
2023/06/15 01:02:03;;;;;;;14.10;6.53;;;;;;;-144.57;100.00;62443.72;4937262;29;20516;-65
2023/06/15 01:04:29;;;;;;;16.08;6.20;;;;;;;-144.57;100.00;62443.72;4954249;29;20465;-65
2023/06/15 01:07:04;;;;;;;11.48;6.32;;;;;;;-144.57;100.00;62443.72;4936852;29;20125;-66
2023/06/15 01:09:33;;;;;;;10.45;6.50;;;;;;;-144.57;100.00;62443.72;4921561;29;20510;-65
2023/06/15 01:12:01;;;;;;;11.93;6.32;;;;;;;-144.57;100.00;62443.72;4936838;29;20049;-64
2023/06/15 01:14:28;;;;;;;11.13;5.95;;;;;;;-144.57;100.00;62443.72;4936957;29;20062;-66
2023/06/15 01:17:01;;;;;;;11.00;6.20;;;;;;;-144.57;100.00;62443.72;4936501;29;20043;-66
2023/06/15 01:19:39;;;;;;;12.68;6.30;;;;;;;-144.57;100.00;62443.72;4921086;29;20051;-65
2023/06/15 01:22:45;;;;;;;12.60;6.32;;;;;;;-144.57;100.00;62443.72;4953830;29;20502;-64
2023/06/15 01:25:37;;;;;;;10.77;6.07;;;;;;;-144.57;100.00;62443.72;4954184;29;20061;-65
2023/06/15 01:28:05;;;;;;;9.27;6.13;;;;;;;-144.57;100.00;62443.72;4927184;28;20587;-66
2023/06/15 01:30:51;;;;;;;10.57;6.70;;;;;;;-144.57;100.00;62443.72;4936550;29;20186;-66
2023/06/15 01:33:17;;;;;;;12.73;6.50;;;;;;;-144.57;100.00;62443.72;4936373;29;20043;-66
2023/06/15 01:35:43;;;;;;;12.63;6.55;;;;;;;-144.57;100.00;62443.72;4953463;29;20117;-65
2023/06/15 01:38:09;;;;;;;10.43;6.30;;;;;;;-144.57;100.00;62443.72;4920507;29;20047;-65
2023/06/15 01:40:38;;;;;;;11.68;6.05;;;;;;;-144.57;100.00;62443.72;4936406;29;20066;-65
2023/06/15 01:43:06;;;;;;;12.65;6.70;;;;;;;-144.57;100.00;62443.72;4936385;29;20041;-67
2023/06/15 01:45:32;;;;;;;12.68;6.88;;;;;;;-144.57;100.00;62443.72;4936380;29;20043;-65
2023/06/15 01:47:58;;;;;;;13.18;6.32;;;;;;;-144.57;100.00;62443.72;4936421;29;20047;-65
2023/06/15 01:50:25;;;;;;;13.00;6.38;;;;;;;-144.57;100.00;62443.72;4936310;29;20043;-66
2023/06/15 01:52:51;;;;;;;12.30;6.40;;;;;;;-144.57;100.00;62443.72;4952144;28;20043;-66
2023/06/15 01:55:16;;;;;;;14.77;6.93;;;;;;;-144.57;100.00;62443.72;4953746;29;20457;-65
2023/06/15 01:57:42;;;;;;;10.02;6.47;;;;;;;-144.57;100.00;62443.72;4951984;28;20083;-66
2023/06/15 02:00:10;;;;;;;9.20;5.60;;;;;;;-144.57;100.00;62443.72;4935894;29;20055;-65
2023/06/15 02:02:42;;;;;;;8.93;5.60;;;;;;;-144.57;100.00;62443.72;4952957;29;20043;-64
2023/06/15 02:05:09;;;;;;;8.82;5.53;;;;;;;-144.57;100.00;62443.72;4919955;29;20047;-65
2023/06/15 02:07:35;;;;;;;11.70;5.55;;;;;;;-144.57;100.00;62443.72;4935736;29;20449;-66
2023/06/15 02:10:01;;;;;;;8.52;4.80;;;;;;;-144.57;100.00;62443.72;4936048;29;20094;-65
2023/06/15 02:12:28;;;;;;;8.55;5.25;;;;;;;-144.57;100.00;62443.72;4936307;29;20521;-66
2023/06/15 02:14:55;;;;;;;11.40;5.03;;;;;;;-144.57;100.00;62443.72;4935981;29;20098;-65
2023/06/15 02:17:24;;;;;;;8.38;5.15;;;;;;;-144.57;100.00;62443.72;4935868;29;20039;-66
2023/06/15 02:19:50;;;;;;;8.80;5.32;;;;;;;-144.57;100.00;62443.72;4953214;28;20528;-65
2023/06/15 02:22:16;;;;;;;9.60;5.55;;;;;;;-144.57;100.00;62443.72;4952933;29;20043;-65
2023/06/15 02:24:42;;;;;;;7.65;4.57;;;;;;;-144.57;100.00;62443.72;4953310;29;20047;-66
2023/06/15 02:27:08;;;;;;;10.05;5.13;;;;;;;-144.57;100.00;62443.72;4951642;29;20050;-65
2023/06/15 02:29:34;;;;;;;10.75;5.35;;;;;;;-144.57;100.00;62443.72;4932853;29;20067;-65
2023/06/15 02:32:00;;;;;;;7.97;5.25;;;;;;;-144.57;100.00;62443.72;4932537;29;20040;-65
2023/06/15 02:34:25;;;;;;;6.07;5.25;;;;;;;-144.57;100.00;62443.72;4916822;29;20050;-65
2023/06/15 02:36:53;;;;;;;10.25;6.25;;;;;;;-144.57;100.00;62443.72;4932474;29;20047;-65
2023/06/15 02:39:20;;;;;;;10.02;5.18;;;;;;;-144.57;100.00;62443.72;4932450;29;20100;-64
2023/06/15 02:41:46;;;;;;;8.18;5.15;;;;;;;-144.57;100.00;62443.72;4932473;29;20095;-64
2023/06/15 02:44:14;;;;;;;7.45;5.28;;;;;;;-144.57;100.00;62443.72;4932561;29;20549;-65
2023/06/15 02:46:41;;;;;;;6.63;4.85;;;;;;;-144.57;100.00;62443.72;4933929;29;20040;-65
2023/06/15 02:49:08;;;;;;;10.82;5.40;;;;;;;-144.57;100.00;62443.72;4932431;29;20070;-66
2023/06/15 02:51:37;;;;;;;7.80;5.68;;;;;;;-144.57;100.00;62443.72;4932759;29;20090;-66
2023/06/15 02:54:06;;;;;;;11.57;4.88;;;;;;;-144.57;100.00;62443.72;4901283;29;20099;-65
2023/06/15 02:56:35;;;;;;;8.18;5.43;;;;;;;-144.57;100.00;62443.72;4932387;29;20078;-66
2023/06/15 02:59:01;;;;;;;9.18;5.47;;;;;;;-144.57;100.00;62443.72;4932224;29;20422;-65
2023/06/15 03:01:49;;;;;;;7.53;5.32;;;;;;;-144.57;100.00;62443.72;4932393;29;20498;-66
2023/06/15 03:04:17;;;;;;;9.00;5.53;;;;;;;-144.57;100.00;62443.72;4932203;29;20052;-65
2023/06/15 03:06:46;;;;;;;7.72;5.22;;;;;;;-144.57;100.00;62443.72;4932575;29;20071;-65
2023/06/15 03:09:23;;;;;;;7.85;5.13;;;;;;;-144.57;100.00;62443.72;4932293;29;20044;-64
2023/06/15 03:11:50;;;;;;;7.70;5.40;;;;;;;-144.57;100.00;62443.72;4916523;29;20103;-66
2023/06/15 03:14:21;;;;;;;9.88;5.78;;;;;;;-144.57;100.00;62443.72;4948159;28;20099;-65
2023/06/15 03:16:47;;;;;;;6.30;5.32;;;;;;;-144.57;100.00;62443.72;4916918;29;20063;-64
2023/06/15 03:19:16;;;;;;;7.55;5.47;;;;;;;-144.57;100.00;62443.72;4951499;28;20055;-65
2023/06/15 03:21:43;;;;;;;8.35;5.70;;;;;;;-144.57;100.00;62443.72;4936843;29;20044;-65
2023/06/15 03:24:10;;;;;;;8.75;5.20;;;;;;;-144.57;100.00;62443.72;4951303;29;20052;-65
2023/06/15 03:26:37;;;;;;;7.68;5.45;;;;;;;-144.57;100.00;62443.72;4934608;29;20529;-64
2023/06/15 03:29:04;;;;;;;7.80;5.18;;;;;;;-144.57;100.00;62443.72;4951288;28;20127;-64
2023/06/15 03:31:33;;;;;;;9.32;5.07;;;;;;;-144.57;100.00;62443.72;4935566;29;20047;-63
2023/06/15 03:34:00;;;;;;;7.38;5.55;;;;;;;-144.57;100.00;62443.72;4904129;29;20039;-66
2023/06/15 03:36:29;;;;;;;13.75;5.60;;;;;;;-144.57;100.00;62443.72;4935376;29;20095;-66
2023/06/15 03:38:57;;;;;;;9.98;5.22;;;;;;;-144.57;100.00;62443.72;4936089;29;20114;-64
2023/06/15 03:41:26;;;;;;;8.07;5.35;;;;;;;-144.57;100.00;62443.72;4934767;29;20421;-65
2023/06/15 03:43:52;;;;;;;5.60;4.60;;;;;;;-144.57;100.00;62443.72;4935189;29;20126;-65
2023/06/15 03:46:18;;;;;;;6.97;4.70;;;;;;;-144.57;100.00;62443.72;4934972;29;20055;-66
2023/06/15 03:48:45;;;;;;;6.38;4.70;;;;;;;-144.57;100.00;62443.72;4919367;29;20139;-65
2023/06/15 03:51:11;;;;;;;5.60;4.50;;;;;;;-144.57;100.00;62443.72;4935058;29;20569;-65
2023/06/15 03:53:43;;;;;;;10.00;4.93;;;;;;;-144.57;100.00;62443.72;4950878;28;20051;-65
2023/06/15 03:56:08;;;;;;;8.57;4.70;;;;;;;-144.57;100.00;62443.72;4936044;29;20043;-65
2023/06/15 03:58:34;;;;;;;6.93;5.05;;;;;;;-144.57;100.00;62443.72;4919178;29;20052;-64
2023/06/15 04:01:04;;;;;;;6.88;4.75;;;;;;;-144.57;100.00;62443.72;4934714;29;20040;-65
2023/06/15 04:03:35;;;;;;;6.45;4.68;;;;;;;-144.57;100.00;62443.72;4935582;29;20093;-64
2023/06/15 04:06:04;;;;;;;5.70;4.97;;;;;;;-144.57;100.00;62443.72;4935720;29;20499;-65
2023/06/15 04:08:34;;;;;;;11.88;6.00;;;;;;;-144.57;100.00;62443.72;4934523;29;20138;-65
2023/06/15 04:11:00;;;;;;;7.57;5.47;;;;;;;-144.57;100.00;62443.72;4934516;29;20482;-65
2023/06/15 04:13:26;;;;;;;8.93;5.15;;;;;;;-144.57;100.00;62443.72;4903377;29;20079;-65
2023/06/15 04:15:55;;;;;;;6.65;5.35;;;;;;;-144.57;100.00;62443.72;4934487;29;20130;-64
2023/06/15 04:18:23;;;;;;;9.75;5.70;;;;;;;-144.57;100.00;62443.72;4950544;28;20055;-64
2023/06/15 04:20:49;;;;;;;7.00;5.32;;;;;;;-144.57;100.00;62443.72;4934402;29;20052;-65
2023/06/15 04:23:15;;;;;;;8.93;5.30;;;;;;;-144.57;100.00;62443.72;4934545;29;20516;-65
2023/06/15 04:25:42;;;;;;;8.77;5.40;;;;;;;-144.57;100.00;62443.72;4934408;29;20052;-65
2023/06/15 04:28:10;;;;;;;7.18;5.13;;;;;;;-144.57;100.00;62443.72;4919035;28;20146;-64
2023/06/15 04:30:40;;;;;;;8.82;5.03;;;;;;;-144.57;100.00;62443.72;4937732;29;20410;-64
2023/06/15 04:33:07;;;;;;;7.63;5.55;;;;;;;-144.57;100.00;62443.72;4937385;29;20314;-65
2023/06/15 04:35:35;;;;;;;8.80;5.25;;;;;;;-144.57;100.00;62443.72;4937651;29;20051;-64
2023/06/15 04:38:05;;;;;;;7.80;5.20;;;;;;;-144.57;100.00;62443.72;4937244;29;20047;-65
2023/06/15 04:40:31;;;;;;;6.45;4.90;;;;;;;-144.57;100.00;62443.72;4936003;29;20066;-65
2023/06/15 04:43:02;;;;;;;7.65;5.10;;;;;;;-144.57;100.00;62443.72;4936476;29;20039;-63
2023/06/15 04:45:29;;;;;;;;;;;;;;;-144.57;100.00;62443.72;4937119;29;20073;-64
2023/06/15 04:47:55;;;;;;;7.82;4.70;;;;;;;-144.57;100.00;62443.72;4951965;29;20567;-65
2023/06/15 04:50:23;;;;;;;5.88;4.40;;;;;;;-144.57;100.00;62443.72;4936389;29;20055;-67
2023/06/15 04:52:49;;;;;;;6.80;5.03;;;;;;;-144.57;100.00;62443.72;4920768;29;20125;-66
2023/06/15 04:55:14;;;;;;;8.48;4.80;;;;;;;-144.57;100.00;62443.72;4953272;28;20562;-67
2023/06/15 04:57:40;;;;;;;6.15;4.80;;;;;;;-144.57;100.00;62443.72;4936133;29;20505;-66
2023/06/15 05:00:10;;;;;;;10.70;4.63;;;;;;;-144.57;100.00;62443.72;4935696;29;20066;-66
2023/06/15 05:02:41;;;;;;;9.77;5.05;;;;;;;-144.57;100.00;62443.72;4936265;29;20049;-67
2023/06/15 05:05:07;;;;;;;7.75;4.28;;;;;;;-144.57;100.00;62443.72;4935335;29;20500;-67
2023/06/15 05:07:32;;;;;;;8.63;4.28;;;;;;;-144.57;100.00;62443.72;4936205;29;20043;-66
2023/06/15 05:09:59;;;;;;;10.77;4.80;;;;;;;-144.57;100.00;62443.72;4935955;29;20086;-66
2023/06/15 05:12:26;;;;;;;4.57;3.65;;;;;;;-144.57;100.00;62443.72;4936376;29;20469;-67
2023/06/15 05:14:53;;;;;;;6.47;4.28;;;;;;;-144.57;100.00;62443.72;4951743;29;20053;-66
2023/06/15 05:17:19;;;;;;;6.72;3.55;;;;;;;-144.57;100.00;62443.72;4952010;29;20122;-67
2023/06/15 05:19:45;;;;;;;5.13;4.00;;;;;;;-144.57;100.00;62443.72;4935766;29;20043;-67
2023/06/15 05:22:12;;;;;;;7.28;4.25;;;;;;;-144.57;100.00;62443.72;4952851;29;20509;-65
2023/06/15 05:24:39;;;;;;;6.97;4.13;;;;;;;-144.57;100.00;62443.72;4935981;29;20059;-66
2023/06/15 05:27:08;;;;;;;5.18;3.78;;;;;;;-144.57;100.00;62443.72;4951734;29;20039;-64
2023/06/15 05:29:36;;;;;;;6.68;3.92;;;;;;;-144.57;100.00;62443.72;4932791;29;20123;-64
2023/06/15 05:32:06;;;;;;;6.90;3.92;;;;;;;-144.57;100.00;62443.72;4918270;29;20043;-64
2023/06/15 05:34:34;;;;;;;5.57;3.60;;;;;;;-144.57;100.00;62443.72;4933178;29;20043;-64
2023/06/15 05:37:00;;;;;;;7.65;3.83;;;;;;;-144.57;100.00;62443.72;4933204;29;20043;-64
2023/06/15 05:39:31;;;;;;;5.57;3.80;;;;;;;-144.57;100.00;62443.72;4932711;29;20118;-64
2023/06/15 05:41:57;;;;;;;5.78;3.70;;;;;;;-144.57;100.00;62443.72;4934580;29;20114;-65
2023/06/15 05:44:23;;;;;;;8.70;4.05;;;;;;;-144.57;100.00;62443.72;4948991;28;20494;-65
2023/06/15 05:46:52;;;;;;;6.25;3.85;;;;;;;-144.57;100.00;62443.72;4932883;29;20090;-65
2023/06/15 05:49:18;;;;;;;5.35;3.97;;;;;;;-144.57;100.00;62443.72;4932854;29;20048;-63
2023/06/15 05:51:44;;;;;;;7.05;4.82;;;;;;;-144.57;100.00;62443.72;4948828;29;20062;-63
2023/06/15 05:54:10;;;;;;;6.63;4.28;;;;;;;-144.57;100.00;62443.72;4932663;29;20510;-64
2023/06/15 05:56:36;;;;;;;5.68;4.00;;;;;;;-144.57;100.00;62443.72;4932895;29;20095;-64
2023/06/15 05:59:03;;;;;;;7.10;3.92;;;;;;;-144.57;100.00;62443.72;4932569;29;20056;-64
2023/06/15 06:01:29;;;;;;;5.63;3.85;;;;;;;-144.57;100.00;62443.72;4932842;29;20112;-64
2023/06/15 06:03:55;;;;;;;5.07;4.15;;;;;;;-144.57;100.00;62443.72;4932646;29;20102;-67
2023/06/15 06:06:21;;;;;;;4.45;3.63;;;;;;;-144.57;100.00;62443.72;4931219;29;20506;-64
2023/06/15 06:08:47;;;;;;;5.88;3.78;;;;;;;-144.57;100.00;62443.72;4933701;29;20056;-63
2023/06/15 06:11:13;;;;;;;6.80;3.70;;;;;;;-144.57;100.00;62443.72;4931355;29;20134;-63
2023/06/15 06:13:42;;;;;;;5.30;4.18;;;;;;;-144.57;100.00;62443.72;4945663;28;20043;-67
2023/06/15 06:16:08;;;;;;;7.22;4.20;;;;;;;-144.57;100.00;62443.72;4933061;29;20040;-62
2023/06/15 06:18:33;;;;;;;7.10;4.35;;;;;;;-144.57;100.00;62443.72;4932029;29;20056;-63
2023/06/15 06:20:59;;;;;;;8.45;4.35;;;;;;;-144.57;100.00;62443.72;4915379;29;20130;-63
2023/06/15 06:23:25;;;;;;;5.93;3.85;;;;;;;-144.57;100.00;62443.72;4932053;29;20044;-62
2023/06/15 06:25:51;;;;;;;5.28;3.95;;;;;;;-144.57;100.00;62443.72;4932411;29;20123;-62
2023/06/15 06:28:18;;;;;;;4.75;3.95;;;;;;;-144.57;100.00;62443.72;4931843;29;20086;-63
2023/06/15 06:30:43;;;;;;;5.10;3.65;;;;;;;-144.57;100.00;62443.72;4935399;29;20067;-64
2023/06/15 06:33:09;;;;;;;4.55;3.67;;;;;;;-144.57;100.00;62443.72;4934877;29;20466;-64
2023/06/15 06:35:35;;;;;;;6.15;3.70;;;;;;;-144.57;100.00;62443.72;4952642;29;20047;-62
2023/06/15 06:38:01;;;;;;;5.47;3.70;;;;;;;-144.57;100.00;62443.72;4951691;29;20067;-63
2023/06/15 06:40:26;;;;;;;4.88;3.90;;;;;;;-144.57;100.00;62443.72;4952364;28;20058;-63
2023/06/15 06:42:52;;;;;;;6.20;4.00;;;;;;;-144.57;100.00;62443.72;4951901;29;20450;-63
2023/06/15 06:45:18;;;;;;;5.63;3.90;;;;;;;-144.57;100.00;62443.72;4949838;29;20090;-62
2023/06/15 06:47:43;;;;;;;6.47;3.95;;;;;;;-144.57;100.00;62443.72;4950558;28;20046;-63
2023/06/15 06:50:09;;;;;;;5.32;4.20;;;;;;;-144.57;100.00;62443.72;4951782;28;20054;-62
2023/06/15 06:52:35;;;;;;;4.95;4.07;;;;;;;-144.57;100.00;62443.72;4954318;28;20050;-61
2023/06/15 06:55:01;;;;;;;6.00;4.35;;;;;;;-144.57;100.00;62443.72;4954648;29;20514;-64
2023/06/15 06:57:26;;;;;;;7.15;3.78;;;;;;;-144.57;100.00;62443.72;4955211;29;20093;-64
2023/06/15 06:59:52;;;;;;;4.82;3.97;;;;;;;-144.57;100.00;62443.72;4938870;29;20113;-62
2023/06/15 07:02:17;;;;;;;5.25;3.78;;;;;;;-144.57;100.00;62443.72;4955657;29;20067;-62
2023/06/15 07:04:43;;;;;;;6.55;4.03;;;;;;;-144.57;100.00;62443.72;4956126;29;20421;-62
2023/06/15 07:07:09;;;;;;;5.25;4.07;;;;;;;-144.57;100.00;62443.72;4955167;29;20066;-62
2023/06/15 07:09:34;;;;;;;4.18;3.67;;;;;;;-144.57;100.00;62443.72;4954050;29;20050;-62
2023/06/15 07:12:00;;;;;;;5.85;4.10;;;;;;;-144.57;100.00;62443.72;4938514;29;20090;-64
2023/06/15 07:14:26;;;;;;;7.43;4.30;;;;;;;-144.57;100.00;62443.72;4955831;29;20039;-63
2023/06/15 07:16:52;;;;;;;5.88;4.05;;;;;;;-144.57;100.00;62443.72;4937395;29;20050;-63
2023/06/15 07:19:18;;;;;;;4.60;4.00;;;;;;;-144.57;100.00;62443.72;4936537;29;20051;-63
2023/06/15 07:21:43;;;;;;;6.18;4.10;;;;;;;-144.57;100.00;62443.72;4937235;29;20213;-62
2023/06/15 07:24:09;;;;;;;5.90;3.83;;;;;;;-144.57;100.00;62443.72;4955160;28;20047;-61
2023/06/15 07:26:34;;;;;;;6.25;4.25;;;;;;;-144.57;100.00;62443.72;4938160;29;20039;-64
2023/06/15 07:29:00;;;;;;;9.27;4.80;;;;;;;-144.57;100.00;62443.72;4953822;29;20067;-62
2023/06/15 07:31:26;;;;;;;6.78;4.50;;;;;;;-144.57;100.00;62443.72;4953403;29;20075;-62
2023/06/15 07:33:53;;;;;;;7.32;4.05;;;;;;;-144.57;100.00;62443.72;4953764;29;20509;-62
2023/06/15 07:36:19;;;;;;;5.85;4.80;;;;;;;-144.57;100.00;62443.72;4953770;29;20050;-62
2023/06/15 07:38:45;;;;;;;15.32;5.82;;;;;;;-144.57;100.00;62443.72;4935848;29;20497;-62
2023/06/15 07:41:11;;;;;;;4.60;4.10;;;;;;;-144.57;100.00;62443.72;4954061;29;20050;-62
2023/06/15 07:43:36;;;;;;;5.03;4.45;;;;;;;-144.57;100.00;62443.72;4954139;29;20136;-63
2023/06/15 07:46:02;;;;;;;6.38;4.68;;;;;;;-144.57;100.00;62443.72;4953654;29;20498;-63
2023/06/15 07:48:28;;;;;;;5.72;4.30;;;;;;;-144.57;100.00;62443.72;4952908;28;20498;-62
2023/06/15 07:50:53;;;;;;;4.93;4.20;;;;;;;-144.57;100.00;62443.72;4952932;29;20051;-62
2023/06/15 07:53:19;;;;;;;6.22;4.28;;;;;;;-144.57;100.00;62443.72;4952804;29;20110;-62
2023/06/15 07:55:45;;;;;;;5.93;5.03;;;;;;;-144.57;100.00;62443.72;4954435;29;20110;-62
2023/06/15 07:58:10;;;;;;;8.80;4.85;;;;;;;-144.57;100.00;62443.72;4953827;28;20125;-63
2023/06/15 08:00:36;;;;;;;7.28;4.80;;;;;;;-144.57;100.00;62443.72;4953662;28;20055;-61
2023/06/15 08:03:02;;;;;;;6.32;4.25;;;;;;;-144.57;100.00;62443.72;4952977;28;20532;-63
2023/06/15 08:05:27;;;;;;;5.85;4.30;;;;;;;-144.57;100.00;62443.72;4952786;29;20047;-62
2023/06/15 08:07:53;;;;;;;10.15;4.30;;;;;;;-144.57;100.00;62443.72;4949788;29;20047;-63
2023/06/15 08:10:19;;;;;;;12.13;4.78;;;;;;;-144.57;100.00;62443.72;4951060;29;20051;-62
2023/06/15 08:12:45;;;;;;;5.32;4.82;;;;;;;-144.57;100.00;62443.72;4950792;29;20086;-64
2023/06/15 08:15:11;;;;;;;5.03;4.30;;;;;;;-144.57;100.00;62443.72;4952110;28;20055;-62
2023/06/15 08:17:36;;;;;;;5.03;4.13;;;;;;;-144.57;100.00;62443.72;4953441;29;20042;-63
2023/06/15 08:20:09;;;;;;;7.07;4.88;;;;;;;-144.57;100.00;62443.72;4953126;29;20098;-66
2023/06/15 08:22:35;;;;;;;5.07;4.45;;;;;;;-144.57;100.00;62443.72;4952837;29;20047;-65
2023/06/15 08:25:01;;;;;;;8.75;5.22;;;;;;;-144.57;100.00;62443.72;4952370;29;20047;-65
2023/06/15 08:27:27;;;;;;;8.90;5.07;;;;;;;-144.57;100.00;62443.72;4935232;29;20039;-65
2023/06/15 08:29:54;;;;;;;4.90;4.22;;;;;;;-144.57;100.00;62443.72;4951826;29;20130;-63
2023/06/15 08:32:20;;;;;;;9.30;4.60;;;;;;;-144.57;100.00;62443.72;4952965;29;20129;-65
2023/06/15 08:34:46;;;;;;;6.68;4.30;;;;;;;-144.57;100.00;62443.72;4954068;28;20106;-62
2023/06/15 08:37:12;;;;;;;6.30;4.47;;;;;;;-144.57;100.00;62443.72;4954070;29;20089;-63
2023/06/15 08:39:38;;;;;;;5.82;4.20;;;;;;;-144.57;100.00;62443.72;4952478;28;20086;-63
2023/06/15 08:42:06;;;;;;;11.00;5.43;;;;;;;-144.57;100.00;62443.72;4936663;29;20050;-62
2023/06/15 08:44:33;;;;;;;6.57;5.25;;;;;;;-144.57;100.00;62443.72;4954692;28;20043;-62
2023/06/15 08:47:00;;;;;;;6.82;4.70;;;;;;;-144.57;100.00;62443.72;4954166;28;20043;-62
2023/06/15 08:49:26;;;;;;;8.77;5.43;;;;;;;-144.57;100.00;62443.72;4920740;29;20058;-64
2023/06/15 08:51:53;;;;;;;11.93;4.60;;;;;;;-144.57;100.00;62443.72;4936589;29;20054;-64
2023/06/15 08:54:25;;;;;;;7.70;4.40;;;;;;;-144.57;100.00;62443.72;4935978;29;20051;-63
2023/06/15 08:56:50;;;;;;;6.25;4.38;;;;;;;-144.57;100.00;62443.72;4953073;29;20536;-63
2023/06/15 08:59:16;;;;;;;5.50;4.50;;;;;;;-144.57;100.00;62443.72;4934924;29;20047;-64
2023/06/15 09:01:43;;;;;;;5.50;4.75;;;;;;;-144.57;100.00;62443.72;4952440;29;20066;-64
2023/06/15 09:04:09;;;;;;;7.03;4.45;;;;;;;-144.57;100.00;62443.72;4953189;29;20383;-63
2023/06/15 09:06:34;;;;;;;5.47;4.93;;;;;;;-144.57;100.00;62443.72;4951728;29;20047;-64
2023/06/15 09:09:00;;;;;;;5.40;4.75;;;;;;;-144.57;100.00;62443.72;4953528;29;20486;-62
2023/06/15 09:11:26;;;;;;;6.47;4.68;;;;;;;-144.57;100.00;62443.72;4952927;29;20039;-63
2023/06/15 09:13:54;;;;;;;6.70;4.75;;;;;;;-144.57;100.00;62443.72;4953312;28;20117;-62
2023/06/15 09:16:19;;;;;;;6.55;4.40;;;;;;;-144.57;100.00;62443.72;4952312;28;20082;-62
2023/06/15 09:18:51;;;;;;;6.70;4.47;;;;;;;-144.57;100.00;62443.72;4952991;28;20047;-63
2023/06/15 09:21:20;;;;;;;6.60;4.55;;;;;;;-144.57;100.00;62443.72;4951549;29;20421;-61
2023/06/15 09:23:46;;;;;;;11.23;4.88;;;;;;;-144.57;100.00;62443.72;4934145;29;20078;-63
2023/06/15 09:26:22;;;;;;;8.07;5.05;;;;;;;-144.57;100.00;62443.72;4901473;29;20035;-63
2023/06/15 09:28:48;;;;;;;6.80;4.53;;;;;;;-144.57;100.00;62443.72;4951009;29;20044;-63
2023/06/15 09:31:31;;;;;;;6.60;4.43;;;;;;;-144.57;100.00;62443.72;4934793;29;20576;-63
2023/06/15 09:34:09;;;;;;;6.38;4.60;;;;;;;-144.57;100.00;62443.72;4953044;29;20134;-63
2023/06/15 09:36:38;;;;;;;11.35;4.80;;;;;;;-144.57;100.00;62443.72;4934580;29;20049;-64
2023/06/15 09:39:04;;;;;;;5.47;4.30;;;;;;;-144.57;100.00;62443.72;4952256;29;20428;-62
2023/06/15 09:41:31;;;;;;;5.95;4.40;;;;;;;-144.57;100.00;62443.72;4951966;29;20094;-64
2023/06/15 09:44:01;;;;;;;4.95;4.40;;;;;;;-144.57;100.00;62443.72;4951142;29;20043;-64
2023/06/15 09:46:29;;;;;;;6.57;4.90;;;;;;;-144.57;100.00;62443.72;4942231;29;20560;-63
2023/06/15 09:48:55;;;;;;;9.82;4.90;;;;;;;-144.57;100.00;62443.72;4952083;29;20043;-64
2023/06/15 09:51:21;;;;;;;6.50;4.75;;;;;;;-144.57;100.00;62443.72;4936515;29;20051;-65
2023/06/15 09:53:47;;;;;;;6.30;4.65;;;;;;;-144.57;100.00;62443.72;4951932;29;20043;-63
2023/06/15 09:56:12;;;;;;;6.63;4.57;;;;;;;-144.57;100.00;62443.72;4952742;29;20480;-63
2023/06/15 09:58:38;;;;;;;7.75;4.57;;;;;;;-144.57;100.00;62443.72;4952077;29;20046;-64
2023/06/15 10:01:05;;;;;;;9.30;4.63;;;;;;;-144.57;100.00;62443.72;4917032;29;20078;-64
2023/06/15 10:03:32;;;;;;;8.18;4.20;;;;;;;-144.57;100.00;62443.72;4952078;28;20070;-63
2023/06/15 10:06:15;;;;;;;8.07;4.88;;;;;;;-144.57;100.00;62443.72;4934480;29;20043;-63
2023/06/15 10:08:41;;;;;;;5.60;4.70;;;;;;;-144.57;100.00;62443.72;4952704;29;20060;-64
2023/06/15 10:11:09;;;;;;;6.65;4.57;;;;;;;-144.57;100.00;62443.72;4935166;29;20529;-64
2023/06/15 10:13:51;;;;;;;6.45;5.13;;;;;;;-144.57;100.00;62443.72;4950399;29;20480;-62
2023/06/15 10:16:18;;;;;;;5.82;4.68;;;;;;;-144.57;100.00;62443.72;4952266;29;20043;-63
2023/06/15 10:18:47;;;;;;;7.57;5.07;;;;;;;-144.57;100.00;62443.72;4933175;29;20390;-63
2023/06/15 10:21:18;;;;;;;6.93;4.50;;;;;;;-144.57;100.00;62443.72;4944314;29;20039;-65
2023/06/15 10:23:46;;;;;;;7.10;4.80;;;;;;;-144.57;100.00;62443.72;4942846;29;20051;-63
2023/06/15 10:26:12;;;;;;;6.22;4.68;;;;;;;-144.57;100.00;62443.72;4935641;29;20625;-64
2023/06/15 10:28:44;;;;;;;8.18;4.72;;;;;;;-144.57;100.00;62443.72;4937541;29;20106;-63
2023/06/15 10:31:19;;;;;;;5.80;4.68;;;;;;;-144.57;100.00;62443.72;4954460;29;20055;-64
2023/06/15 10:34:24;;;;;;;6.93;4.80;;;;;;;-144.57;100.00;62443.72;4948678;29;20653;-62
2023/06/15 10:37:13;;;;;;;5.72;4.38;;;;;;;-144.57;100.00;62443.72;4955695;29;20548;-63
2023/06/15 10:39:44;;;;;;;7.17;4.60;;;;;;;-144.57;100.00;62443.72;4956603;29;20426;-64
2023/06/15 10:42:14;;;;;;;6.82;4.57;;;;;;;-144.57;100.00;62443.72;4939986;29;20296;-63
2023/06/15 10:44:40;;;;;;;11.20;5.03;;;;;;;-144.57;100.00;62443.72;4955801;29;20059;-63
2023/06/15 10:47:13;;;;;;;8.52;4.85;;;;;;;-144.57;100.00;62443.72;4955282;29;20062;-64
2023/06/15 10:49:53;;;;;;;8.70;4.60;;;;;;;-144.57;100.00;62443.72;4951887;29;20502;-64
2023/06/15 10:52:19;;;;;;;7.80;4.88;;;;;;;-144.57;100.00;62443.72;4937169;29;20031;-65
2023/06/15 10:54:46;;;;;;;6.63;4.97;;;;;;;-144.57;100.00;62443.72;4937955;29;20114;-65
2023/06/15 10:57:18;;;;;;;5.88;4.70;;;;;;;-144.57;100.00;62443.72;4955104;29;20039;-64
2023/06/15 10:59:54;;;;;;;5.13;4.63;;;;;;;-144.57;100.00;62443.72;4954612;29;20047;-70
2023/06/15 11:02:28;;;;;;;7.57;4.68;;;;;;;-144.57;100.00;62443.72;4953737;29;20046;-65
2023/06/15 11:05:23;;;;;;;6.07;4.57;;;;;;;-144.57;100.00;62443.72;4937869;29;20043;-64
2023/06/15 11:07:50;;;;;;;4.78;4.38;;;;;;;-144.57;100.00;62443.72;4950762;28;20039;-65
2023/06/15 11:10:27;;;;;;;6.75;4.80;;;;;;;-144.57;100.00;62443.72;4938631;29;20393;-64